»·PEaware :: N982PT KBFL-KMHV

N982PT :: KBFL-KMHV

FLIGHT INFORMATION

Flight Status: Arrived
Operator: Privately registered:
United States
More flights under this callsign
Pilot: Peter V. (40465)
Aircraft: CESSNA 172 SKYHAWK
(C172)
More flights by this aircraft type
Origin: KBFL Meadows
United States
Destination: KMHV Mojave
United States
More flights between these airports :: More routes between these airports
Route:
File this flight plan on PilotEdge
Remarks:
Altitude:
(Current/Filed)
9,500ft
Speed:
(Current/Filed)
100kts
Departed: 29-Oct-23 11:57 AM
Arrived: 29-Oct-23 12:30 PM
Distance/Time
Traveled:
49nm/0:33
Distance/Time
To Go:
Arrived

Flight Plot

Page will automatically refresh every two minutes.


Map Options




Map Legend


Flown Route
Filed Route
Departure Airport
Arrival Airport
Navaid (VOR, NDB)
Fix

Horizontal Profiles

Position Reports

Time Latitude Longitude Heading Altitude Ground
Speed
29-Oct-23 11:42 35.432211 -119.050336 226 485ft 0kts
29-Oct-23 11:43 35.432211 -119.050336 226 485ft 0kts
29-Oct-23 11:44 35.432211 -119.050336 226 485ft 0kts
29-Oct-23 11:45 35.432211 -119.050336 226 485ft 0kts
29-Oct-23 11:46 35.432211 -119.050336 226 485ft 0kts
29-Oct-23 11:47 35.432211 -119.050336 226 485ft 0kts
29-Oct-23 11:48 35.431948 -119.050183 133 485ft 7kts
29-Oct-23 11:49 35.428982 -119.048046 135 482ft 18kts
29-Oct-23 11:50 35.425774 -119.044684 207 471ft 0kts
29-Oct-23 11:51 35.425774 -119.044684 207 471ft 0kts
29-Oct-23 11:52 35.425774 -119.044684 207 471ft 0kts
29-Oct-23 11:53 35.425774 -119.044684 207 471ft 0kts
29-Oct-23 11:54 35.425774 -119.044684 207 471ft 0kts
29-Oct-23 11:55 35.425774 -119.044684 207 471ft 0kts
29-Oct-23 11:56 35.425774 -119.044684 207 471ft 0kts
29-Oct-23 11:57 35.435576 -119.057990 317 745ft 87kts
29-Oct-23 11:58 35.454154 -119.069624 42 1621ft 83kts
29-Oct-23 11:58 35.445989 -119.051124 153 2096ft 102kts
29-Oct-23 12:00 35.420268 -119.027846 142 2759ft 107kts
29-Oct-23 12:01 35.407449 -118.993306 116 2984ft 106kts
29-Oct-23 12:02 35.394924 -118.962300 117 3663ft 97kts
29-Oct-23 12:02 35.385114 -118.938260 116 4234ft 91kts
29-Oct-23 12:03 35.374028 -118.911129 116 4917ft 84kts
29-Oct-23 12:04 35.363886 -118.886311 116 5595ft 77kts
29-Oct-23 12:06 35.354237 -118.862356 117 6118ft 75kts
29-Oct-23 12:07 35.343019 -118.835523 117 6500ft 99kts
29-Oct-23 12:07 35.332224 -118.809301 117 6779ft 106kts
29-Oct-23 12:08 35.318828 -118.776744 117 7057ft 111kts
29-Oct-23 12:09 35.304220 -118.741273 117 7103ft 115kts
29-Oct-23 12:10 35.290989 -118.709064 117 7580ft 100kts
29-Oct-23 12:11 35.278665 -118.679137 117 8067ft 96kts
29-Oct-23 12:12 35.266791 -118.650338 117 8548ft 93kts
29-Oct-23 12:13 35.255113 -118.622046 117 9050ft 92kts
29-Oct-23 12:14 35.242526 -118.591673 117 9229ft 112kts
29-Oct-23 12:15 35.227985 -118.556565 117 9229ft 117kts
29-Oct-23 12:16 35.213181 -118.520826 117 9228ft 118kts
29-Oct-23 12:17 35.198267 -118.484858 117 9228ft 118kts
29-Oct-23 12:18 35.183347 -118.448909 117 9227ft 119kts
29-Oct-23 12:19 35.168358 -118.412837 117 9225ft 118kts
29-Oct-23 12:20 35.153530 -118.377184 117 9225ft 118kts
29-Oct-23 12:21 35.138755 -118.341707 117 9217ft 110kts
29-Oct-23 12:22 35.125566 -118.312187 125 9151ft 95kts
29-Oct-23 12:23 35.108639 -118.286928 133 9014ft 96kts
29-Oct-23 12:24 35.086346 -118.270712 168 8469ft 90kts
29-Oct-23 12:25 35.064834 -118.259816 135 7320ft 80kts
29-Oct-23 12:26 35.058222 -118.233288 87 5814ft 92kts
29-Oct-23 12:27 35.059810 -118.202400 89 4106ft 88kts
29-Oct-23 12:28 35.059254 -118.175042 90 3061ft 74kts
29-Oct-23 12:29 35.058481 -118.157751 174 2766ft 17kts
29-Oct-23 12:30 35.058252 -118.157740 178 2767ft 0kts
29-Oct-23 12:31 35.058252 -118.157740 178 2767ft 0kts
29-Oct-23 12:32 35.057284 -118.158446 145 2770ft 9kts

Navigation Log

Ident Type
Flight plan parsing failed, navigation log unavailable